Time;durP1;ratioP1;P1;durP2;ratioP2;P2;SDS_P1;SDS_P2;PMS_P1;PMS_P2;Temp;Humidity;BMP_temperature;BMP_pressure;BME280_temperature;BME280_humidity;BME280_pressure;Samples;Min_cycle;Max_cycle;Signal;HPM_P1;HPM_P2
2021/04/05 00:00:23;;;;;;;19.63;7.22;;;3.00;1.00;;;;;;5073810;28;20194;-73
2021/04/05 00:02:49;;;;;;;21.65;8.20;;;;;;;;;;5072013;28;20206;-73
2021/04/05 00:05:23;;;;;;;30.67;8.02;;;;;;;;;;5070005;28;20218;-73
2021/04/05 00:07:49;;;;;;;13.40;6.70;;;;;;;;;;5066044;28;20167;-73
2021/04/05 00:10:22;;;;;;;23.58;7.18;;;3.00;1.00;;;;;;5070685;28;20186;-73
2021/04/05 00:12:55;;;;;;;21.95;8.52;;;3.00;1.00;;;;;;5073763;28;20186;-73
2021/04/05 00:15:22;;;;;;;28.23;8.27;;;;;;;;;;5070947;28;20190;-73
2021/04/05 00:17:49;;;;;;;19.15;7.55;;;;;;;;;;5068863;28;20254;-73
2021/04/05 00:20:16;;;;;;;28.88;10.00;;;;;;;;;;5059399;28;20167;-73
2021/04/05 00:22:42;;;;;;;20.30;6.80;;;2.90;1.00;;;;;;5063024;28;20727;-73
2021/04/05 00:25:15;;;;;;;26.15;7.40;;;;;;;;;;5073453;28;20159;-73
2021/04/05 00:27:50;;;;;;;23.58;7.35;;;;;;;;;;5073326;28;20207;-73
2021/04/05 00:30:43;;;;;;;23.15;7.90;;;2.90;1.00;;;;;;5070181;28;20638;-73
2021/04/05 00:33:15;;;;;;;23.63;9.30;;;;;;;;;;5087245;28;20178;-73
2021/04/05 00:35:41;;;;;;;23.17;8.50;;;;;;;;;;5057209;28;20178;-73
2021/04/05 00:38:09;;;;;;;27.67;9.40;;;2.80;1.00;;;;;;5073149;28;20163;-73
2021/04/05 00:40:37;;;;;;;28.38;8.55;;;;;;;;;;5053787;28;20226;-73
2021/04/05 00:43:09;;;;;;;23.58;7.75;;;2.80;1.00;;;;;;5057077;28;20187;-73
2021/04/05 00:45:35;;;;;;;34.03;7.97;;;;;;;;;;5071375;28;20570;-73
2021/04/05 00:48:02;;;;;;;29.08;9.25;;;2.80;1.00;;;;;;5073223;28;20167;-73
2021/04/05 00:50:28;;;;;;;18.30;6.85;;;;;;;;;;5073412;28;20489;-73
2021/04/05 00:52:58;;;;;;;22.85;8.35;;;2.80;1.00;;;;;;5060619;28;20176;-73
2021/04/05 00:55:39;;;;;;;27.20;7.68;;;;;;;;;;5057475;28;20175;-73
2021/04/05 00:58:09;;;;;;;46.20;10.27;;;;;;;;;;5060611;28;20191;-73
2021/04/05 01:00:39;;;;;;;23.45;7.25;;;2.70;1.00;;;;;;5075712;28;20179;-73
2021/04/05 01:03:07;;;;;;;18.15;6.47;;;;;;;;;;5077208;28;20198;-73
2021/04/05 01:05:33;;;;;;;16.92;7.03;;;2.60;1.00;;;;;;5076075;28;20187;-73
2021/04/05 01:08:03;;;;;;;21.23;6.07;;;2.60;1.00;;;;;;5065969;28;20196;-73
2021/04/05 01:10:30;;;;;;;19.25;8.02;;;;;;;;;;5076923;28;20178;-73
2021/04/05 01:12:56;;;;;;;21.88;7.90;;;;;;;;;;5076511;28;20250;-73
2021/04/05 01:15:22;;;;;;;18.65;8.70;;;;;;;;;;5074519;28;20166;-73
2021/04/05 01:17:48;;;;;;;24.42;7.53;;;;;;;;;;5057385;28;20566;-73
2021/04/05 01:20:15;;;;;;;21.17;8.10;;;;;;;;;;5067452;28;20502;-73
2021/04/05 01:22:42;;;;;;;18.75;6.80;;;;;;;;;;5077050;28;20268;-73
2021/04/05 01:25:09;;;;;;;27.23;8.10;;;2.50;1.00;;;;;;5069420;28;20195;-73
2021/04/05 01:27:36;;;;;;;25.92;8.40;;;;;;;;;;5056737;28;20172;-73
2021/04/05 01:30:04;;;;;;;19.17;7.60;;;;;;;;;;5058404;28;20627;-73
2021/04/05 01:32:30;;;;;;;23.45;7.82;;;;;;;;;;5075848;28;20171;-73
2021/04/05 01:34:56;;;;;;;36.17;10.27;;;;;;;;;;5064949;28;20524;-73
2021/04/05 01:37:22;;;;;;;21.25;7.53;;;;;;;;;;5057089;28;20607;-73
2021/04/05 01:39:48;;;;;;;22.95;8.40;;;;;;;;;;5056693;28;20179;-73
2021/04/05 01:42:14;;;;;;;13.55;6.05;;;;;;;;;;5076175;28;20533;-73
2021/04/05 01:44:41;;;;;;;20.67;7.38;;;;;;;;;;5076622;28;20159;-73
2021/04/05 01:47:10;;;;;;;19.42;7.00;;;2.40;1.00;;;;;;5062658;28;20718;-74
2021/04/05 01:49:39;;;;;;;24.27;8.57;;;2.30;1.00;;;;;;5064792;28;20225;-73
2021/04/05 01:52:12;;;;;;;26.30;8.57;;;2.30;1.00;;;;;;5056675;28;20160;-73
2021/04/05 01:54:38;;;;;;;36.50;10.68;;;;;;;;;;5065514;28;20250;-73
2021/04/05 01:57:10;;;;;;;34.22;12.60;;;2.30;1.00;;;;;;5068797;28;20697;-73
2021/04/05 01:59:44;;;;;;;23.23;7.30;;;2.30;1.00;;;;;;5076401;28;20495;-73
2021/04/05 02:02:10;;;;;;;29.27;8.40;;;2.20;1.00;;;;;;5076055;28;20187;-73
2021/04/05 02:04:44;;;;;;;16.07;5.97;;;2.20;1.00;;;;;;5075271;28;20178;-73
2021/04/05 02:07:10;;;;;;;15.98;6.28;;;2.20;1.00;;;;;;5066907;28;20250;-73
2021/04/05 02:09:36;;;;;;;14.53;7.10;;;2.30;1.00;;;;;;5075981;28;20261;-73
2021/04/05 02:12:02;;;;;;;32.03;10.37;;;;;;;;;;5075708;28;20419;-73
2021/04/05 02:14:28;;;;;;;37.35;13.00;;;2.30;1.00;;;;;;5074739;28;20413;-73
2021/04/05 02:16:54;;;;;;;29.37;9.37;;;;;;;;;;5064429;28;20175;-73
2021/04/05 02:19:20;;;;;;;39.50;9.75;;;2.30;1.00;;;;;;5067250;28;20179;-73
2021/04/05 02:21:47;;;;;;;28.67;10.40;;;2.30;1.00;;;;;;5055676;28;20203;-73
2021/04/05 02:24:14;;;;;;;21.13;7.40;;;2.40;1.00;;;;;;5058371;28;20558;-73
2021/04/05 02:26:41;;;;;;;17.58;9.32;;;2.30;1.00;;;;;;5075490;28;20167;-73
2021/04/05 02:29:08;;;;;;;20.85;8.35;;;2.30;1.00;;;;;;5075574;28;20217;-73
2021/04/05 02:31:35;;;;;;;17.05;6.30;;;2.40;1.00;;;;;;5069483;28;20638;-73
2021/04/05 02:34:03;;;;;;;29.90;7.85;;;2.40;1.00;;;;;;5060055;28;20167;-73
2021/04/05 02:36:31;;;;;;;23.80;8.82;;;2.40;1.00;;;;;;5055602;28;20156;-73
2021/04/05 02:39:00;;;;;;;29.33;8.32;;;2.40;1.00;;;;;;5068315;28;20171;-73
2021/04/05 02:41:29;;;;;;;21.75;8.05;;;2.40;1.00;;;;;;5075289;28;20207;-73
2021/04/05 02:43:56;;;;;;;33.35;7.78;;;2.40;1.00;;;;;;5063988;28;20179;-73
2021/04/05 02:46:34;;;;;;;25.48;8.05;;;2.50;1.00;;;;;;5066607;28;20254;-73
2021/04/05 02:49:03;;;;;;;30.77;9.48;;;2.60;1.00;;;;;;5073314;28;20147;-73
2021/04/05 02:51:31;;;;;;;30.20;7.50;;;2.50;1.00;;;;;;5056337;28;20164;-73
2021/04/05 02:54:00;;;;;;;24.95;7.82;;;2.60;1.00;;;;;;5061018;28;20193;-73
2021/04/05 02:56:27;;;;;;;21.45;7.18;;;2.70;1.00;;;;;;5075280;28;20160;-73
2021/04/05 02:58:54;;;;;;;20.73;8.82;;;2.70;1.00;;;;;;5072286;28;20230;-73
2021/04/05 03:01:22;;;;;;;17.55;8.15;;;2.70;1.00;;;;;;5072642;28;20222;-73
2021/04/05 03:03:48;;;;;;;22.27;8.32;;;2.80;1.00;;;;;;5074846;28;20225;-73
2021/04/05 03:06:21;;;;;;;28.40;8.38;;;2.80;1.00;;;;;;5074766;28;20163;-74
2021/04/05 03:08:47;;;;;;;23.70;7.78;;;2.90;1.00;;;;;;5065040;28;20626;-73
2021/04/05 03:11:17;;;;;;;26.88;10.48;;;2.90;1.00;;;;;;5074812;28;20626;-73
2021/04/05 03:13:45;;;;;;;28.48;11.00;;;2.90;1.00;;;;;;5065407;28;20167;-73
2021/04/05 03:16:16;;;;;;;23.30;7.45;;;3.00;1.00;;;;;;5065864;28;20240;-73
2021/04/05 03:18:44;;;;;;;36.58;8.82;;;3.00;1.00;;;;;;5074548;28;20249;-74
2021/04/05 03:21:12;;;;;;;24.60;9.30;;;3.00;1.00;;;;;;5074721;28;20205;-73
2021/04/05 03:23:39;;;;;;;17.23;7.90;;;3.10;1.00;;;;;;5063458;28;20184;-73
2021/04/05 03:26:05;;;;;;;24.85;10.70;;;3.00;1.00;;;;;;5069946;28;20253;-73
2021/04/05 03:28:31;;;;;;;36.30;7.77;;;3.10;1.00;;;;;;5074601;28;20270;-73
2021/04/05 03:31:16;;;;;;;18.37;8.23;;;3.10;1.00;;;;;;5059256;28;20638;-73
2021/04/05 03:33:53;;;;;;;31.73;9.65;;;3.10;1.00;;;;;;5073778;28;20948;-74
2021/04/05 03:36:24;;;;;;;33.30;9.43;;;3.10;1.00;;;;;;5069791;28;20168;-73
2021/04/05 03:38:59;;;;;;;29.48;8.38;;;3.20;1.00;;;;;;5107636;27;20568;-73
2021/04/05 03:41:46;;;;;;;32.50;9.60;;;3.30;1.00;;;;;;5089730;28;20174;-73
2021/04/05 03:44:21;;;;;;;22.60;8.15;;;3.20;1.00;;;;;;5090902;28;20174;-73
2021/04/05 03:46:49;;;;;;;30.38;8.15;;;3.20;1.00;;;;;;5090828;28;20174;-73
2021/04/05 03:49:33;;;;;;;24.23;8.98;;;3.20;1.00;;;;;;5090756;28;20174;-73
2021/04/05 03:52:06;;;;;;;26.67;9.35;;;3.20;1.00;;;;;;5090908;28;20236;-73
2021/04/05 03:54:53;;;;;;;33.50;10.10;;;3.30;1.00;;;;;;5090964;28;20173;-73
2021/04/05 03:57:31;;;;;;;24.58;8.90;;;3.30;1.00;;;;;;5090750;28;20664;-73
2021/04/05 04:00:00;;;;;;;20.38;9.30;;;3.30;1.00;;;;;;5090843;28;20163;-73
2021/04/05 04:02:35;;;;;;;24.13;7.95;;;3.30;1.00;;;;;;5090219;28;20217;-73
2021/04/05 04:10:13;;;;;;;33.55;9.60;;;3.30;1.00;;;;;;5089424;28;20186;-73
2021/04/05 04:12:42;;;;;;;23.83;9.02;;;3.30;1.00;;;;;;5090543;28;20162;-73
2021/04/05 04:15:10;;;;;;;14.02;6.90;;;3.30;1.00;;;;;;5090464;28;20515;-73
2021/04/05 04:17:37;;;;;;;12.45;6.80;;;3.30;1.00;;;;;;5090246;28;20185;-73
2021/04/05 04:20:12;;;;;;;29.17;8.82;;;3.30;1.00;;;;;;5090159;28;20609;-73
2021/04/05 04:22:38;;;;;;;25.55;8.05;;;3.30;1.00;;;;;;5090389;28;20178;-73
2021/04/05 04:25:06;;;;;;;26.48;9.32;;;3.40;1.00;;;;;;5089064;28;20687;-73
2021/04/05 04:27:33;;;;;;;22.33;8.02;;;3.40;1.00;;;;;;5088271;28;20687;-73
2021/04/05 04:29:59;;;;;;;19.42;7.93;;;3.50;1.00;;;;;;5090022;28;20258;-73
2021/04/05 04:32:27;;;;;;;37.83;8.57;;;;;;;;;;5090102;28;20576;-73
2021/04/05 04:34:56;;;;;;;19.15;8.25;;;3.60;1.00;;;;;;5089974;28;20914;-73
2021/04/05 04:37:23;;;;;;;27.17;9.00;;;3.60;1.00;;;;;;5089615;28;20209;-73
2021/04/05 04:39:49;;;;;;;19.25;7.00;;;3.60;1.00;;;;;;5089893;28;20179;-73
2021/04/05 04:42:16;;;;;;;24.23;8.55;;;3.70;1.00;;;;;;5090018;28;20170;-73
2021/04/05 04:44:42;;;;;;;11.68;6.88;;;;;;;;;;5089819;28;20167;-73
2021/04/05 04:47:08;;;;;;;23.48;9.30;;;3.80;1.00;;;;;;5089687;28;20221;-73
2021/04/05 04:49:35;;;;;;;19.40;7.82;;;3.90;1.00;;;;;;5079544;28;20178;-73
2021/04/05 04:52:01;;;;;;;19.40;8.23;;;3.90;1.00;;;;;;5076291;28;20174;-73
2021/04/05 04:54:27;;;;;;;15.20;7.82;;;;;;;;;;5076004;28;20170;-73
2021/04/05 04:56:53;;;;;;;42.50;8.20;;;4.00;1.00;;;;;;5076083;28;20511;-73
2021/04/05 04:59:21;;;;;;;33.47;9.20;;;4.10;1.00;;;;;;5075463;28;20174;-73
2021/04/05 05:01:51;;;;;;;20.67;7.82;;;4.20;1.00;;;;;;5076225;28;20393;-73
2021/04/05 05:04:31;;;;;;;18.92;7.93;;;4.20;1.00;;;;;;5075820;28;20210;-76
2021/04/05 05:06:59;;;;;;;18.83;7.97;;;4.20;1.00;;;;;;5076294;28;20585;-78
2021/04/05 05:09:27;;;;;;;31.48;9.10;;;4.20;1.00;;;;;;5075722;28;20332;-77
2021/04/05 05:11:53;;;;;;;16.13;7.90;;;4.30;1.00;;;;;;5075519;28;20215;-78
2021/04/05 05:14:56;;;;;;;17.42;7.32;;;4.30;1.00;;;;;;5076194;28;20207;-81
2021/04/05 05:17:27;;;;;;;21.77;8.00;;;4.40;1.00;;;;;;5075761;28;20198;-75
2021/04/05 05:19:56;;;;;;;20.38;8.52;;;4.50;1.00;;;;;;5069381;28;20526;-72
2021/04/05 05:22:24;;;;;;;25.67;6.95;;;4.50;1.00;;;;;;5075036;28;20194;-73
2021/04/05 05:24:52;;;;;;;16.90;7.32;;;4.60;1.00;;;;;;5075484;28;20190;-73
2021/04/05 05:27:20;;;;;;;13.50;7.30;;;4.60;1.00;;;;;;5075058;28;20195;-73
2021/04/05 05:29:47;;;;;;;18.75;6.88;;;4.60;1.00;;;;;;5075732;28;20159;-73
2021/04/05 05:32:18;;;;;;;16.52;6.25;;;4.70;1.00;;;;;;5074364;28;20182;-73
2021/04/05 05:34:46;;;;;;;22.73;8.00;;;4.80;1.00;;;;;;5075673;28;20190;-72
2021/04/05 05:37:12;;;;;;;22.17;7.13;;;;;;;;;;5075567;28;20194;-73
2021/04/05 05:39:40;;;;;;;19.27;6.85;;;5.00;1.00;;;;;;5075137;28;20189;-72
2021/04/05 05:42:23;;;;;;;11.35;6.00;;;5.00;1.00;;;;;;5075179;28;20630;-72
2021/04/05 05:45:08;;;;;;;15.13;6.70;;;5.10;1.00;;;;;;5075087;28;20253;-73
2021/04/05 05:47:47;;;;;;;14.43;7.28;;;5.20;1.00;;;;;;5074785;28;20297;-77
2021/04/05 05:50:38;;;;;;;13.93;6.68;;;5.20;1.00;;;;;;5075540;28;20167;-79
2021/04/05 05:53:53;;;;;;;13.73;6.38;;;5.30;1.00;;;;;;5075114;28;20185;-74
2021/04/05 05:56:50;;;;;;;19.58;6.00;;;5.40;1.00;;;;;;5075292;28;20155;-75
2021/04/05 05:59:30;;;;;;;19.33;6.43;;;5.50;1.00;;;;;;5075252;28;20254;-74
2021/04/05 06:02:16;;;;;;;16.65;6.75;;;5.50;1.00;;;;;;5074077;28;20175;-74
2021/04/05 06:05:06;;;;;;;13.77;6.25;;;5.70;1.00;;;;;;5075042;28;20264;-74
2021/04/05 06:08:19;;;;;;;16.52;6.95;;;5.80;1.00;;;;;;5075072;28;20266;-74
2021/04/05 06:11:07;;;;;;;18.15;6.18;;;5.90;1.00;;;;;;5032517;28;20671;-75
2021/04/05 06:14:09;;;;;;;12.47;5.23;;;6.00;1.00;;;;;;5013341;28;20520;-75
2021/04/05 06:17:12;;;;;;;16.10;5.43;;;6.20;1.00;;;;;;5028409;28;20434;-75
2021/04/05 06:20:20;;;;;;;19.43;5.30;;;6.20;1.00;;;;;;5032657;28;20521;-75
2021/04/05 06:23:13;;;;;;;19.60;6.90;;;6.30;1.00;;;;;;5032483;28;20965;-74
2021/04/05 06:26:09;;;;;;;10.53;5.23;;;6.40;1.00;;;;;;5014655;28;20876;-74
2021/04/05 06:28:49;;;;;;;15.27;6.10;;;6.50;1.00;;;;;;5012799;28;20895;-77
2021/04/05 06:31:56;;;;;;;9.63;3.53;;;6.60;1.00;;;;;;5001177;28;20450;-75
2021/04/05 06:34:35;;;;;;;14.83;5.60;;;6.70;1.00;;;;;;5032497;28;20411;-76
2021/04/05 06:37:22;;;;;;;14.37;5.33;;;6.80;1.00;;;;;;5031832;28;20805;-73
2021/04/05 06:39:53;;;;;;;10.97;6.03;;;6.90;1.00;;;;;;5032502;28;20430;-70
2021/04/05 06:42:37;;;;;;;10.63;5.37;;;7.00;1.00;;;;;;5074842;28;20818;-74
2021/04/05 06:45:27;;;;;;;17.43;6.30;;;7.00;1.00;;;;;;5073882;28;20469;-75
2021/04/05 06:48:13;;;;;;;12.80;5.03;;;7.10;1.00;;;;;;5073668;28;20468;-78
2021/04/05 06:50:50;;;;;;;22.63;7.07;;;7.20;1.00;;;;;;4992263;28;20428;-73
2021/04/05 06:53:38;;;;;;;16.20;6.67;;;7.30;1.00;;;;;;4987200;28;20821;-73
2021/04/05 06:56:29;;;;;;;28.30;7.27;;;7.50;1.00;;;;;;4992565;28;20440;-73
2021/04/05 06:59:11;;;;;;;27.53;6.63;;;7.50;1.00;;;;;;4992577;28;20479;-74
2021/04/05 07:02:23;;;;;;;16.10;7.60;;;7.50;1.00;;;;;;4995662;28;20531;-74
2021/04/05 07:05:02;;;;;;;20.97;7.20;;;7.60;1.00;;;;;;4981952;28;20935;-74
2021/04/05 07:08:21;;;;;;;15.17;5.80;;;7.70;1.00;;;;;;4989685;28;20475;-74
2021/04/05 07:11:13;;;;;;;16.00;5.50;;;7.70;1.00;;;;;;4964037;28;20497;-74
2021/04/05 07:14:15;;;;;;;15.70;6.27;;;7.70;1.00;;;;;;4952730;29;20906;-74
2021/04/05 07:16:52;;;;;;;11.73;5.10;;;7.60;1.00;;;;;;4953482;29;20468;-73
2021/04/05 07:19:42;;;;;;;20.53;6.40;;;7.60;1.00;;;;;;4953436;29;20538;-74
2021/04/05 07:22:17;;;;;;;13.53;6.90;;;7.70;1.00;;;;;;4971086;28;20433;-74
2021/04/05 07:24:50;;;;;;;12.70;5.50;;;7.70;1.00;;;;;;4936181;28;20460;-74
2021/04/05 07:27:55;;;;;;;11.57;4.63;;;7.60;1.00;;;;;;4966911;28;20974;-72
2021/04/05 07:30:42;;;;;;;18.50;7.20;;;7.60;1.00;;;;;;5011452;28;20416;-71
2021/04/05 07:33:34;;;;;;;24.00;7.17;;;7.60;1.00;;;;;;5011509;28;20416;-71
2021/04/05 07:36:20;;;;;;;14.73;6.57;;;7.70;1.00;;;;;;4992125;28;20532;-71
2021/04/05 07:39:05;;;;;;;13.87;5.60;;;7.70;1.00;;;;;;5008339;28;20572;-71
2021/04/05 07:41:48;;;;;;;16.57;6.50;;;7.70;1.00;;;;;;5025604;28;20512;-73
2021/04/05 07:44:48;;;;;;;19.93;7.80;;;7.80;1.00;;;;;;5032397;28;20422;-73
2021/04/05 07:47:13;;;;;;;12.97;4.70;;;7.80;1.00;;;;;;5030795;28;20509;-74
2021/04/05 07:49:52;;;;;;;24.73;7.87;;;7.90;1.00;;;;;;5031375;28;20399;-74
2021/04/05 07:52:23;;;;;;;14.30;7.03;;;7.90;1.00;;;;;;5031538;28;20298;-74
2021/04/05 07:54:49;;;;;;;19.80;8.00;;;8.00;1.00;;;;;;5031120;28;20972;-74
2021/04/05 07:57:46;;;;;;;23.20;8.27;;;8.00;1.00;;;;;;5032356;28;20945;-74
2021/04/05 08:00:39;;;;;;;19.77;7.97;;;8.00;1.00;;;;;;5030801;28;20441;-75
2021/04/05 08:03:41;;;;;;;19.97;7.23;;;7.90;1.00;;;;;;4963841;28;20444;-73
2021/04/05 08:06:12;;;;;;;23.83;8.67;;;8.00;1.00;;;;;;4972102;28;20433;-73
2021/04/05 08:09:00;;;;;;;15.77;6.23;;;8.10;1.00;;;;;;5011121;28;20482;-73
2021/04/05 08:11:50;;;;;;;21.00;8.57;;;8.20;1.00;;;;;;5014526;28;20418;-73
2021/04/05 08:14:39;;;;;;;17.00;6.63;;;8.30;1.00;;;;;;5020659;28;20426;-74
2021/04/05 08:17:23;;;;;;;23.80;8.20;;;8.40;1.00;;;;;;5031058;28;20391;-73
2021/04/05 08:20:00;;;;;;;11.83;5.50;;;8.50;1.00;;;;;;5014109;28;20424;-75
2021/04/05 08:22:42;;;;;;;16.30;7.53;;;;;;;;;;5011243;28;20423;-73
2021/04/05 08:25:31;;;;;;;26.73;10.10;;;8.50;1.00;;;;;;5013618;28;20428;-73
2021/04/05 08:28:08;;;;;;;26.27;8.50;;;8.60;1.00;;;;;;5031625;28;20524;-74
2021/04/05 08:31:01;;;;;;;21.73;8.80;;;8.60;1.00;;;;;;5014598;28;20404;-73
2021/04/05 08:33:43;;;;;;;18.23;6.67;;;8.60;1.00;;;;;;5014754;28;20442;-74
2021/04/05 08:36:27;;;;;;;18.67;5.00;;;8.70;1.00;;;;;;4998235;28;20418;-74
2021/04/05 08:39:12;;;;;;;20.73;8.17;;;8.70;1.00;;;;;;5015609;28;20470;-74
2021/04/05 08:41:54;;;;;;;22.37;6.80;;;8.70;1.00;;;;;;5056889;28;20413;-73
2021/04/05 08:44:36;;;;;;;21.30;6.80;;;8.80;1.00;;;;;;5068647;28;20814;-73
2021/04/05 08:47:05;;;;;;;18.80;8.37;;;9.00;1.00;;;;;;5076170;28;21013;-73
2021/04/05 08:49:33;;;;;;;23.30;9.03;;;9.00;1.00;;;;;;5076299;28;20390;-73
2021/04/05 08:52:07;;;;;;;25.13;7.60;;;9.10;1.00;;;;;;5076483;28;20393;-72
2021/04/05 08:54:39;;;;;;;18.60;8.27;;;9.10;1.00;;;;;;5076256;28;20432;-72
2021/04/05 08:57:15;;;;;;;19.83;8.10;;;9.20;1.00;;;;;;5076631;28;20442;-73
2021/04/05 08:59:45;;;;;;;18.50;8.00;;;9.40;1.00;;;;;;5071607;28;20766;-73
2021/04/05 09:02:21;;;;;;;21.37;8.47;;;9.40;1.00;;;;;;5068132;28;20467;-73
2021/04/05 09:04:53;;;;;;;21.93;8.93;;;9.40;1.00;;;;;;5076108;28;20434;-73
2021/04/05 09:07:34;;;;;;;21.47;9.60;;;9.40;1.00;;;;;;5075840;28;20445;-73
2021/04/05 09:10:06;;;;;;;20.80;9.20;;;9.30;1.00;;;;;;5076154;28;20492;-73
2021/04/05 09:12:34;;;;;;;20.70;8.60;;;9.40;1.00;;;;;;5075538;28;20520;-73
2021/04/05 09:15:18;;;;;;;17.80;8.13;;;9.30;1.00;;;;;;5075299;28;20464;-73
2021/04/05 09:18:18;;;;;;;16.37;8.70;;;9.40;1.00;;;;;;5074645;28;20413;-73
2021/04/05 09:21:19;;;;;;;25.13;8.57;;;9.20;1.00;;;;;;5075928;28;20398;-73
2021/04/05 09:24:03;;;;;;;23.47;7.20;;;9.20;1.00;;;;;;5074757;28;20424;-73
2021/04/05 09:27:13;;;;;;;15.20;7.50;;;9.10;1.00;;;;;;5075612;28;20462;-73
2021/04/05 09:29:57;;;;;;;21.37;8.80;;;9.00;1.00;;;;;;5070340;28;20417;-73
2021/04/05 09:33:01;;;;;;;25.47;9.73;;;9.00;1.00;;;;;;5075152;28;20887;-74
2021/04/05 09:35:59;;;;;;;24.40;8.83;;;8.90;1.00;;;;;;5075278;28;20500;-73
2021/04/05 09:38:54;;;;;;;26.60;8.70;;;8.80;1.00;;;;;;5075296;28;20433;-75
2021/04/05 09:41:22;;;;;;;15.83;6.93;;;8.70;1.00;;;;;;5075638;28;20881;-74
2021/04/05 09:44:00;;;;;;;21.47;9.97;;;8.70;1.00;;;;;;5076058;28;20485;-73
2021/04/05 09:46:56;;;;;;;19.20;8.70;;;8.60;1.00;;;;;;5074726;28;20421;-74
2021/04/05 09:49:54;;;;;;;33.67;9.27;;;8.60;1.00;;;;;;5075198;28;20410;-74
2021/04/05 09:52:29;;;;;;;28.13;9.00;;;8.70;1.00;;;;;;5075530;28;20393;-76
2021/04/05 09:55:02;;;;;;;14.60;7.23;;;8.80;1.00;;;;;;5074753;28;20413;-74
2021/04/05 09:57:39;;;;;;;18.33;8.77;;;8.70;1.00;;;;;;5075425;28;20433;-74
2021/04/05 10:00:12;;;;;;;22.73;6.70;;;8.70;1.00;;;;;;5074951;28;20462;-71
2021/04/05 10:03:03;;;;;;;21.00;6.30;;;8.80;1.00;;;;;;5074676;28;20417;-72
2021/04/05 10:05:31;;;;;;;17.97;8.57;;;8.70;1.00;;;;;;5073831;28;20410;-71
2021/04/05 10:07:58;;;;;;;21.03;8.10;;;8.70;1.00;;;;;;5074493;28;20842;-71
2021/04/05 10:10:28;;;;;;;18.43;7.80;;;8.70;1.00;;;;;;5061043;28;20414;-70
2021/04/05 10:12:58;;;;;;;17.67;6.77;;;8.70;1.00;;;;;;5074578;28;20417;-74
2021/04/05 10:15:27;;;;;;;12.53;5.80;;;8.70;1.00;;;;;;5073100;28;20437;-74
2021/04/05 10:17:56;;;;;;;13.07;5.07;;;8.80;1.00;;;;;;5074642;28;20429;-75
2021/04/05 10:20:30;;;;;;;10.40;4.70;;;8.90;1.00;;;;;;5074147;28;20474;-74
2021/04/05 10:23:08;;;;;;;14.57;4.87;;;8.80;1.00;;;;;;5074532;28;20896;-74
2021/04/05 10:25:35;;;;;;;23.40;7.37;;;8.70;1.00;;;;;;5064160;28;20470;-74
2021/04/05 10:28:05;;;;;;;15.83;6.00;;;8.80;1.00;;;;;;5091903;28;20455;-73
2021/04/05 10:30:37;;;;;;;10.10;5.27;;;8.80;1.00;;;;;;5094450;28;20385;-72
2021/04/05 10:33:08;;;;;;;11.00;5.90;;;8.80;1.00;;;;;;5076681;28;20880;-72
2021/04/05 10:35:40;;;;;;;12.53;5.87;;;8.80;1.00;;;;;;5074253;28;20392;-71
2021/04/05 10:38:06;;;;;;;18.83;6.00;;;8.90;1.00;;;;;;5073881;28;20453;-70
2021/04/05 10:40:34;;;;;;;18.20;6.73;;;8.90;1.00;;;;;;5074229;28;20401;-70
2021/04/05 10:43:11;;;;;;;13.07;5.87;;;8.90;1.00;;;;;;5074248;28;20427;-75
2021/04/05 10:45:39;;;;;;;11.90;5.97;;;8.80;1.00;;;;;;5074401;28;20425;-75
2021/04/05 10:48:20;;;;;;;10.63;5.90;;;8.80;1.00;;;;;;5073570;28;20463;-75
2021/04/05 10:51:17;;;;;;;8.20;4.00;;;8.70;1.00;;;;;;5074297;28;20409;-75
2021/04/05 10:53:45;;;;;;;16.50;5.80;;;8.70;1.00;;;;;;5073903;28;20409;-75
2021/04/05 10:56:11;;;;;;;9.40;4.77;;;8.60;1.00;;;;;;5073962;28;20413;-72
2021/04/05 10:58:53;;;;;;;8.53;4.27;;;8.60;1.00;;;;;;5074221;28;20512;-72
2021/04/05 11:01:20;;;;;;;17.77;6.10;;;;;;;;;;5073987;28;20480;-72
2021/04/05 11:03:51;;;;;;;15.20;5.70;;;8.50;1.00;;;;;;5073668;28;20406;-72
2021/04/05 11:06:18;;;;;;;10.27;4.80;;;;;;;;;;5073595;28;20479;-72
2021/04/05 11:08:48;;;;;;;9.73;4.87;;;8.40;1.00;;;;;;5073193;28;20456;-72
2021/04/05 11:11:23;;;;;;;8.37;4.60;;;8.20;1.00;;;;;;5073554;28;20500;-72
2021/04/05 11:13:53;;;;;;;16.13;5.33;;;8.20;1.00;;;;;;5073911;28;20397;-71
2021/04/05 11:16:22;;;;;;;21.40;5.57;;;8.20;1.00;;;;;;5072019;28;20449;-73
2021/04/05 11:18:56;;;;;;;15.20;6.10;;;8.30;1.00;;;;;;5071912;28;20413;-73
2021/04/05 11:21:44;;;;;;;12.50;4.47;;;8.30;1.00;;;;;;5073566;28;20469;-73
2021/04/05 11:24:12;;;;;;;9.73;5.00;;;8.30;1.00;;;;;;5073438;28;20944;-72
2021/04/05 11:26:41;;;;;;;9.33;4.37;;;8.10;1.00;;;;;;5074412;28;20442;-73
2021/04/05 11:29:14;;;;;;;10.70;4.70;;;8.10;1.00;;;;;;5073811;28;20459;-73
2021/04/05 11:31:43;;;;;;;8.63;3.67;;;8.10;1.00;;;;;;5073010;28;20457;-74
2021/04/05 11:34:22;;;;;;;8.00;3.40;;;8.20;1.00;;;;;;5073616;28;20496;-74
2021/04/05 11:36:51;;;;;;;10.20;4.90;;;8.20;1.00;;;;;;5073463;28;20417;-75
2021/04/05 11:39:18;;;;;;;7.10;3.60;;;8.10;1.00;;;;;;5073421;28;20421;-74
2021/04/05 11:42:04;;;;;;;2.90;2.40;;;8.10;1.00;;;;;;5073145;28;20417;-74
2021/04/05 11:44:38;;;;;;;4.63;2.60;;;8.10;1.00;;;;;;5073618;28;20463;-72
2021/04/05 11:47:08;;;;;;;7.07;2.93;;;8.00;1.00;;;;;;5073081;28;20482;-72
2021/04/05 11:49:34;;;;;;;5.47;3.20;;;7.80;1.00;;;;;;5073378;28;20416;-72
2021/04/05 11:52:20;;;;;;;4.40;2.63;;;7.80;1.00;;;;;;5072176;28;20875;-73
2021/04/05 11:55:04;;;;;;;6.10;3.70;;;7.60;1.00;;;;;;5073392;28;20975;-72
2021/04/05 11:57:39;;;;;;;6.40;2.70;;;7.60;1.00;;;;;;5073221;28;20405;-72
2021/04/05 12:00:11;;;;;;;6.57;3.50;;;7.60;1.00;;;;;;5076057;28;20416;-71
2021/04/05 12:03:10;;;;;;;3.67;2.67;;;7.60;1.00;;;;;;5076665;28;20417;-72
2021/04/05 12:05:40;;;;;;;6.33;2.60;;;7.70;1.00;;;;;;5077240;28;20448;-73
2021/04/05 12:08:10;;;;;;;3.93;1.97;;;7.70;1.00;;;;;;5076258;28;21025;-72
2021/04/05 12:10:38;;;;;;;1.63;1.53;;;7.80;1.00;;;;;;5076943;28;20794;-72
2021/04/05 12:13:50;;;;;;;4.33;2.57;;;7.70;1.00;;;;;;5076926;28;20391;-73
2021/04/05 12:16:23;;;;;;;4.57;1.87;;;7.70;1.00;;;;;;5063757;28;20808;-73
2021/04/05 12:18:54;;;;;;;1.23;1.13;;;7.80;1.00;;;;;;5076346;28;20456;-72
2021/04/05 12:21:26;;;;;;;1.13;0.87;;;7.50;1.00;;;;;;5077016;28;20385;-73
2021/04/05 12:23:58;;;;;;;0.70;0.70;;;7.50;1.00;;;;;;5076586;28;20428;-73
2021/04/05 12:26:25;;;;;;;1.70;1.13;;;7.50;1.00;;;;;;5076738;28;20420;-72
2021/04/05 12:29:00;;;;;;;7.50;1.40;;;7.50;1.00;;;;;;5076893;28;20432;-72
2021/04/05 12:31:27;;;;;;;0.90;0.90;;;7.40;1.00;;;;;;5076339;28;20929;-73
2021/04/05 12:33:55;;;;;;;0.60;0.60;;;7.30;1.00;;;;;;5076113;28;20441;-71
2021/04/05 12:36:30;;;;;;;0.57;0.50;;;7.00;1.00;;;;;;5076601;28;20394;-72
2021/04/05 12:38:56;;;;;;;2.50;0.80;;;6.90;1.00;;;;;;5076096;28;20476;-72
2021/04/05 12:41:22;;;;;;;1.03;0.67;;;6.80;1.00;;;;;;5076296;28;20389;-72
2021/04/05 12:43:53;;;;;;;1.23;0.80;;;6.80;1.00;;;;;;5076124;28;20417;-72
2021/04/05 12:46:19;;;;;;;0.57;0.57;;;6.70;1.00;;;;;;5075283;28;20904;-72
2021/04/05 12:48:46;;;;;;;0.60;0.60;;;6.70;1.00;;;;;;5076280;28;20826;-72
2021/04/05 12:51:21;;;;;;;0.60;0.50;;;6.70;1.00;;;;;;5076099;28;20405;-72
2021/04/05 12:53:49;;;;;;;0.53;0.53;;;6.60;1.00;;;;;;5076179;28;20405;-73
2021/04/05 12:56:21;;;;;;;0.93;0.70;;;6.60;1.00;;;;;;5075973;28;20386;-73
2021/04/05 12:58:53;;;;;;;0.40;0.40;;;6.60;1.00;;;;;;5075935;28;20413;-73
2021/04/05 13:01:30;;;;;;;0.53;0.50;;;6.50;1.00;;;;;;5076200;28;20573;-72
2021/04/05 13:04:00;;;;;;;0.50;0.50;;;6.40;1.00;;;;;;5075718;28;20422;-73
2021/04/05 13:06:33;;;;;;;0.50;0.50;;;6.40;1.00;;;;;;5074758;28;20936;-74
2021/04/05 13:09:16;;;;;;;1.17;0.50;;;6.40;1.00;;;;;;5075760;28;20448;-72
2021/04/05 13:12:10;;;;;;;2.37;0.80;;;6.40;1.00;;;;;;5075371;28;20749;-72
2021/04/05 13:14:46;;;;;;;0.60;0.60;;;6.50;1.00;;;;;;5075107;28;20514;-72
2021/04/05 13:17:26;;;;;;;0.50;0.50;;;6.50;1.00;;;;;;5074398;28;20807;-73
2021/04/05 13:19:57;;;;;;;1.00;0.60;;;6.40;1.00;;;;;;5072810;28;20421;-73
2021/04/05 13:22:29;;;;;;;0.60;0.60;;;6.40;1.00;;;;;;5075560;28;20409;-73
2021/04/05 13:25:05;;;;;;;2.97;0.80;;;6.40;1.00;;;;;;5075025;28;20435;-72
2021/04/05 13:27:32;;;;;;;2.00;0.60;;;6.20;1.00;;;;;;5078812;28;20763;-72
2021/04/05 13:30:06;;;;;;;3.77;0.90;;;6.20;1.00;;;;;;5075732;28;20437;-73
2021/04/05 13:32:35;;;;;;;1.20;0.63;;;6.00;1.00;;;;;;5075264;28;20733;-74
2021/04/05 13:35:08;;;;;;;0.73;0.70;;;6.00;1.00;;;;;;5075720;28;20942;-74
2021/04/05 13:37:43;;;;;;;1.90;0.93;;;5.90;1.00;;;;;;5075095;28;20467;-73
2021/04/05 13:40:10;;;;;;;1.00;0.60;;;5.90;1.00;;;;;;5074166;28;20504;-73
2021/04/05 13:42:37;;;;;;;1.27;0.60;;;5.70;1.00;;;;;;5075023;28;20420;-74
2021/04/05 13:45:14;;;;;;;1.03;0.70;;;5.90;1.00;;;;;;5075498;28;20414;-72
2021/04/05 13:47:47;;;;;;;5.60;1.20;;;5.80;1.00;;;;;;5074845;28;20543;-72
2021/04/05 13:50:15;;;;;;;0.70;0.70;;;5.90;1.00;;;;;;5075431;28;20386;-73
2021/04/05 13:52:45;;;;;;;0.80;0.80;;;6.10;1.00;;;;;;5075240;28;20472;-73
2021/04/05 13:55:20;;;;;;;0.93;0.80;;;6.10;1.00;;;;;;5075115;28;20386;-74
2021/04/05 13:57:49;;;;;;;1.80;0.97;;;6.10;1.00;;;;;;5075060;28;20428;-73